Time;durP1;ratioP1;P1;durP2;ratioP2;P2;SDS_P1;SDS_P2;PMS_P1;PMS_P2;Temp;Humidity;BMP_temperature;BMP_pressure;BME280_temperature;BME280_humidity;BME280_pressure;Samples;Min_cycle;Max_cycle;Signal;HPM_P1;HPM_P2
2023/04/12 00:01:51;;;;;;;0.40;0.40;;;6.90;99.90;;;;;;5068888;28;20508;-69
2023/04/12 00:04:27;;;;;;;0.50;0.50;;;6.80;99.90;;;;;;5143481;28;20043;-69
2023/04/12 00:06:59;;;;;;;0.43;0.43;;;6.70;99.90;;;;;;5064149;28;20051;-70
2023/04/12 00:09:35;;;;;;;0.47;0.47;;;6.70;99.90;;;;;;5097830;28;20115;-71
2023/04/12 00:12:06;;;;;;;0.40;0.40;;;6.70;99.90;;;;;;5057474;28;20054;-69
2023/04/12 00:14:42;;;;;;;0.50;0.50;;;6.60;99.90;;;;;;5069920;29;20028;-70
2023/04/12 00:17:13;;;;;;;0.40;0.40;;;6.60;99.90;;;;;;5078386;28;20040;-72
2023/04/12 00:19:48;;;;;;;0.50;0.50;;;6.60;99.90;;;;;;5089847;29;20030;-72
2023/04/12 00:22:20;;;;;;;0.50;0.50;;;6.60;99.90;;;;;;5083210;28;20038;-68
2023/04/12 00:24:53;;;;;;;0.40;0.40;;;6.60;99.90;;;;;;5089566;28;20028;-69
2023/04/12 00:27:30;;;;;;;0.57;0.57;;;6.70;99.90;;;;;;5091004;28;20040;-71
2023/04/12 00:30:04;;;;;;;0.50;0.50;;;6.60;99.90;;;;;;5089800;28;20103;-70
2023/04/12 00:32:35;;;;;;;0.40;0.40;;;6.50;99.90;;;;;;5077619;28;20050;-70
2023/04/12 00:35:07;;;;;;;0.60;0.60;;;6.50;99.90;;;;;;5099294;28;20043;-69
2023/04/12 00:37:38;;;;;;;0.60;0.60;;;6.40;99.90;;;;;;5093601;29;20035;-71
2023/04/12 00:40:12;;;;;;;0.85;0.85;;;6.40;99.90;;;;;;5067908;29;20039;-69
2023/04/12 00:42:46;;;;;;;0.50;0.50;;;6.30;99.90;;;;;;5109314;29;20045;-70
2023/04/12 00:45:20;;;;;;;0.50;0.50;;;6.40;99.90;;;;;;5081139;28;20035;-70
2023/04/12 00:47:53;;;;;;;0.38;0.38;;;6.40;99.90;;;;;;5094334;28;20033;-68
2023/04/12 00:50:25;;;;;;;0.80;0.80;;;6.40;99.90;;;;;;5123813;28;20046;-69
2023/04/12 00:52:57;;;;;;;0.40;0.40;;;6.40;99.90;;;;;;5110994;28;20233;-69
2023/04/12 00:55:29;;;;;;;0.63;0.63;;;6.50;99.90;;;;;;5094703;28;20210;-70
2023/04/12 00:58:04;;;;;;;0.60;0.60;;;6.50;99.90;;;;;;5093441;28;20631;-71
2023/04/12 01:03:12;;;;;;;0.70;0.70;;;6.50;99.90;;;;;;5081481;28;20085;-69
2023/04/12 01:05:55;;;;;;;0.60;0.60;;;6.50;99.90;;;;;;5047597;28;20062;-69
2023/04/12 01:08:51;;;;;;;0.43;0.43;;;6.50;99.90;;;;;;5051458;28;20138;-67
2023/04/12 01:11:32;;;;;;;0.40;0.40;;;6.40;99.90;;;;;;5069475;28;20051;-68
2023/04/12 01:14:20;;;;;;;0.50;0.50;;;6.40;99.90;;;;;;5070599;29;20522;-67
2023/04/12 01:16:57;;;;;;;0.40;0.40;;;6.50;99.90;;;;;;5134897;28;20411;-67
2023/04/12 01:19:37;;;;;;;0.50;0.50;;;6.40;99.90;;;;;;5069130;29;20043;-69
2023/04/12 01:22:31;;;;;;;0.47;0.47;;;6.40;99.90;;;;;;5070986;29;20028;-69
2023/04/12 01:25:05;;;;;;;0.40;0.40;;;6.50;99.90;;;;;;5070459;29;20481;-71
2023/04/12 01:27:48;;;;;;;0.75;0.75;;;6.40;99.90;;;;;;5050897;28;20048;-69
2023/04/12 01:30:20;;;;;;;0.70;0.70;;;6.30;99.90;;;;;;5037854;29;20040;-70
2023/04/12 01:32:55;;;;;;;0.55;0.55;;;6.40;99.90;;;;;;5037172;29;20095;-68
2023/04/12 01:35:30;;;;;;;0.60;0.60;;;6.40;99.90;;;;;;5049282;28;20040;-68
2023/04/12 01:38:05;;;;;;;0.47;0.47;;;6.30;99.90;;;;;;5053435;28;20044;-69
2023/04/12 01:40:39;;;;;;;0.50;0.50;;;6.30;99.90;;;;;;5025821;29;20033;-69
2023/04/12 01:43:12;;;;;;;0.50;0.50;;;6.30;99.90;;;;;;5033121;29;20041;-70
2023/04/12 01:45:45;;;;;;;0.70;0.70;;;6.30;99.90;;;;;;5063797;29;20035;-69
2023/04/12 01:48:19;;;;;;;0.40;0.40;;;6.30;99.90;;;;;;5067651;28;20074;-69
2023/04/12 01:51:08;;;;;;;0.50;0.50;;;6.30;99.90;;;;;;5064796;28;20049;-70
2023/04/12 01:54:12;;;;;;;0.50;0.50;;;6.30;99.90;;;;;;5063606;28;20102;-70
2023/04/12 01:56:51;;;;;;;0.50;0.50;;;6.30;99.90;;;;;;5041937;28;20047;-69
2023/04/12 01:59:29;;;;;;;0.50;0.50;;;6.30;99.90;;;;;;5065379;29;20336;-69
2023/04/12 02:02:04;;;;;;;0.60;0.60;;;6.20;99.90;;;;;;5063623;28;20034;-73
2023/04/12 02:04:40;;;;;;;0.98;0.90;;;6.30;99.90;;;;;;5086094;28;20046;-72
2023/04/12 02:07:14;;;;;;;0.75;0.75;;;6.20;99.90;;;;;;5155498;28;20064;-69
2023/04/12 02:09:45;;;;;;;;;;;6.20;99.90;;;;;;5165657;28;20037;-71
2023/04/12 02:12:17;;;;;;;0.40;0.40;;;6.30;99.90;;;;;;5162877;28;19913;-70
2023/04/12 02:14:50;;;;;;;0.60;0.60;;;6.20;99.90;;;;;;5184133;28;20340;-71
2023/04/12 02:17:22;;;;;;;0.70;0.70;;;6.10;99.90;;;;;;5162693;28;20143;-70
2023/04/12 02:19:56;;;;;;;0.60;0.60;;;6.10;99.90;;;;;;5173800;28;20542;-71
2023/04/12 02:22:30;;;;;;;0.57;0.57;;;6.00;99.90;;;;;;5140734;28;20044;-71
2023/04/12 02:25:05;;;;;;;;;;;5.90;99.90;;;;;;5168226;28;20047;-71
2023/04/12 02:27:38;;;;;;;0.52;0.52;;;5.90;99.90;;;;;;5159317;28;20121;-68
2023/04/12 02:30:10;;;;;;;0.80;0.80;;;6.00;99.90;;;;;;5157843;28;20037;-71
2023/04/12 02:32:50;;;;;;;0.63;0.63;;;5.90;99.90;;;;;;5155974;28;20677;-70
2023/04/12 02:35:29;;;;;;;0.75;0.60;;;5.90;99.90;;;;;;5186393;28;20411;-70
2023/04/12 02:38:06;;;;;;;0.40;0.40;;;6.00;99.90;;;;;;5174576;28;20033;-68
2023/04/12 02:40:41;;;;;;;0.50;0.50;;;6.10;99.90;;;;;;5169298;28;20034;-69
2023/04/12 02:43:12;;;;;;;0.35;0.35;;;6.10;99.90;;;;;;5156286;28;20043;-69
2023/04/12 02:45:44;;;;;;;0.50;0.50;;;6.10;99.90;;;;;;5168205;28;20048;-70
2023/04/12 02:48:15;;;;;;;0.60;0.60;;;6.10;99.90;;;;;;5186213;28;20035;-71
2023/04/12 02:50:46;;;;;;;0.63;0.63;;;6.10;99.90;;;;;;5189195;28;20089;-70
2023/04/12 02:53:23;;;;;;;0.40;0.40;;;6.10;99.90;;;;;;5185002;28;20030;-71
2023/04/12 02:55:56;;;;;;;0.50;0.50;;;6.10;99.90;;;;;;5160109;28;20034;-69
2023/04/12 02:58:27;;;;;;;0.52;0.52;;;6.10;99.90;;;;;;5165956;28;20043;-68
2023/04/12 03:01:06;;;;;;;0.45;0.45;;;6.10;99.90;;;;;;5146164;28;20043;-72
2023/04/12 03:03:42;;;;;;;0.30;0.30;;;6.10;99.90;;;;;;5141496;28;20038;-69
2023/04/12 03:06:13;;;;;;;0.57;0.57;;;6.10;99.90;;;;;;5115697;28;20053;-72
2023/04/12 03:08:47;;;;;;;0.40;0.40;;;6.00;99.90;;;;;;5076411;29;20042;-70
2023/04/12 03:11:21;;;;;;;0.52;0.52;;;6.00;99.90;;;;;;5054193;29;20042;-69
2023/04/12 03:13:55;;;;;;;0.50;0.50;;;6.00;99.90;;;;;;5071366;29;20040;-71
2023/04/12 03:16:29;;;;;;;0.50;0.50;;;6.00;99.90;;;;;;5056669;29;20365;-71
2023/04/12 03:19:05;;;;;;;0.47;0.47;;;6.00;99.90;;;;;;5072740;29;20262;-71
2023/04/12 03:21:36;;;;;;;0.65;0.65;;;5.90;99.90;;;;;;5072938;29;20036;-69
2023/04/12 03:24:07;;;;;;;0.93;0.93;;;5.90;99.90;;;;;;5072286;29;20044;-70
2023/04/12 03:26:49;;;;;;;0.50;0.50;;;5.80;99.90;;;;;;5077692;28;20038;-70
2023/04/12 03:29:22;;;;;;;0.50;0.50;;;5.80;99.90;;;;;;5054685;29;20486;-69
2023/04/12 03:31:59;;;;;;;0.60;0.60;;;5.80;99.90;;;;;;5076616;29;20037;-70
2023/04/12 03:34:31;;;;;;;0.63;0.63;;;5.90;99.90;;;;;;5091475;29;20049;-71
2023/04/12 03:37:07;;;;;;;0.65;0.65;;;5.90;99.90;;;;;;5057937;29;20042;-70
2023/04/12 03:39:46;;;;;;;0.40;0.40;;;5.90;99.90;;;;;;5058134;29;20059;-72
2023/04/12 03:42:22;;;;;;;0.60;0.60;;;5.80;99.90;;;;;;5072812;29;20038;-70
2023/04/12 03:44:56;;;;;;;0.57;0.57;;;5.70;99.90;;;;;;5043486;29;20042;-70
2023/04/12 03:47:32;;;;;;;0.60;0.60;;;5.70;99.90;;;;;;5071295;29;20035;-71
2023/04/12 03:50:10;;;;;;;0.90;0.90;;;5.70;99.90;;;;;;5074335;29;20034;-71
2023/04/12 03:52:41;;;;;;;0.55;0.55;;;5.60;99.90;;;;;;5075356;28;20048;-70
2023/04/12 03:55:16;;;;;;;0.80;0.70;;;5.40;99.90;;;;;;5073396;29;20240;-69
2023/04/12 03:57:48;;;;;;;0.57;0.57;;;5.10;99.90;;;;;;5043323;28;20039;-71
2023/04/12 04:00:21;;;;;;;0.70;0.70;;;4.90;99.90;;;;;;5055077;29;20043;-70
2023/04/12 04:02:53;;;;;;;0.80;0.80;;;4.70;99.90;;;;;;5124536;28;20046;-68
2023/04/12 04:05:30;;;;;;;0.50;0.50;;;4.50;99.90;;;;;;5135594;28;20039;-71
2023/04/12 04:08:06;;;;;;;0.43;0.43;;;4.40;99.90;;;;;;5090960;28;20054;-70
2023/04/12 04:10:38;;;;;;;0.60;0.60;;;4.20;99.90;;;;;;5106230;28;20112;-71
2023/04/12 04:13:09;;;;;;;0.40;0.40;;;4.10;99.90;;;;;;5109612;28;20049;-73
2023/04/12 04:15:42;;;;;;;0.43;0.43;;;3.90;99.90;;;;;;5093906;28;20050;-73
2023/04/12 04:18:13;;;;;;;3.13;0.70;;;3.90;99.90;;;;;;5053910;28;20044;-73
2023/04/12 04:20:52;;;;;;;0.52;0.52;;;3.80;99.90;;;;;;5096421;29;20036;-71
2023/04/12 04:23:24;;;;;;;0.60;0.60;;;3.80;99.90;;;;;;5051883;28;20051;-71
2023/04/12 04:26:03;;;;;;;0.32;0.32;;;3.70;99.90;;;;;;5048514;29;20039;-71
2023/04/12 04:28:40;;;;;;;0.70;0.70;;;3.60;99.90;;;;;;5049683;29;20032;-69
2023/04/12 04:31:16;;;;;;;0.47;0.47;;;3.70;99.90;;;;;;5073343;28;20048;-70
2023/04/12 04:33:47;;;;;;;0.47;0.47;;;3.70;99.90;;;;;;5137753;28;20035;-68
2023/04/12 04:36:18;;;;;;;0.40;0.40;;;3.70;99.90;;;;;;5062485;29;20036;-70
2023/04/12 04:38:58;;;;;;;1.02;1.02;;;3.70;99.90;;;;;;5079790;29;20044;-72
2023/04/12 04:41:38;;;;;;;1.08;0.95;;;3.80;99.90;;;;;;5042295;28;20042;-70
2023/04/12 04:44:09;;;;;;;1.27;0.52;;;3.90;99.90;;;;;;5058960;28;20377;-72
2023/04/12 04:46:43;;;;;;;0.40;0.40;;;4.00;99.90;;;;;;5095997;28;20521;-70
2023/04/12 04:49:18;;;;;;;0.70;0.70;;;4.20;99.90;;;;;;5066678;29;20024;-69
2023/04/12 04:51:51;;;;;;;0.43;0.43;;;4.40;99.90;;;;;;5084296;28;20035;-72
2023/04/12 04:54:22;;;;;;;0.90;0.90;;;4.60;99.90;;;;;;5091860;28;20209;-72
2023/04/12 04:56:53;;;;;;;0.88;0.88;;;4.90;99.90;;;;;;5076666;29;20046;-71
2023/04/12 04:59:27;;;;;;;0.60;0.60;;;5.20;99.90;;;;;;5071595;28;20239;-70
2023/04/12 05:02:01;;;;;;;1.05;1.05;;;5.50;99.90;;;;;;5059960;28;20052;-70
2023/04/12 05:04:32;;;;;;;0.82;0.82;;;5.40;99.90;;;;;;5090773;28;20051;-70
2023/04/12 05:07:06;;;;;;;1.15;0.70;;;5.40;99.90;;;;;;5092038;28;20039;-68
2023/04/12 05:09:37;;;;;;;1.48;1.38;;;5.60;99.90;;;;;;5094583;28;20035;-69
2023/04/12 05:12:11;;;;;;;0.60;0.60;;;5.80;99.90;;;;;;5107120;28;20679;-70
2023/04/12 05:14:42;;;;;;;0.70;0.70;;;6.10;99.90;;;;;;5082976;29;20032;-70
2023/04/12 05:17:19;;;;;;;0.60;0.60;;;6.10;99.90;;;;;;5101938;29;20042;-70
2023/04/12 05:19:53;;;;;;;0.85;0.85;;;6.30;99.90;;;;;;5123668;28;20310;-70
2023/04/12 05:22:28;;;;;;;0.90;0.90;;;6.60;99.90;;;;;;5156932;28;20036;-71
2023/04/12 05:25:00;;;;;;;0.70;0.70;;;7.00;99.90;;;;;;5138513;28;20031;-73
2023/04/12 05:27:31;;;;;;;0.40;0.40;;;7.20;99.90;;;;;;5101656;28;20035;-71
2023/04/12 05:30:02;;;;;;;0.70;0.70;;;7.40;99.90;;;;;;5067151;28;20047;-71
2023/04/12 05:32:34;;;;;;;1.15;0.93;;;7.60;99.90;;;;;;5069136;29;20364;-71
2023/04/12 05:35:05;;;;;;;0.57;0.57;;;7.70;99.90;;;;;;5092754;28;20047;-70
2023/04/12 05:37:37;;;;;;;0.75;0.75;;;7.90;99.90;;;;;;5076018;28;20039;-71
2023/04/12 05:40:11;;;;;;;0.60;0.60;;;8.40;99.90;;;;;;5092678;28;20617;-71
2023/04/12 05:42:44;;;;;;;0.73;0.73;;;8.80;99.90;;;;;;5092008;28;20292;-69
2023/04/12 05:45:18;;;;;;;0.90;0.90;;;9.30;99.90;;;;;;5089038;29;20049;-72
2023/04/12 05:47:49;;;;;;;0.88;0.88;;;9.70;99.90;;;;;;5092170;29;20031;-72
2023/04/12 05:50:21;;;;;;;0.70;0.70;;;9.80;99.90;;;;;;5177747;28;20527;-71
2023/04/12 05:52:57;;;;;;;0.80;0.80;;;10.30;99.90;;;;;;5095277;28;20039;-72
2023/04/12 05:55:29;;;;;;;0.70;0.70;;;10.70;99.90;;;;;;5094397;28;20408;-71
2023/04/12 05:58:03;;;;;;;1.17;1.17;;;10.50;99.90;;;;;;5093228;29;20033;-69
2023/04/12 06:00:35;;;;;;;0.70;0.70;;;10.20;99.90;;;;;;5093034;28;20336;-71
2023/04/12 06:03:10;;;;;;;0.60;0.60;;;10.10;99.90;;;;;;5071061;28;20042;-72
2023/04/12 06:05:41;;;;;;;0.85;0.85;;;9.80;99.90;;;;;;5065147;28;20055;-69
2023/04/12 06:08:15;;;;;;;0.70;0.70;;;9.70;99.90;;;;;;5091590;29;20347;-69
2023/04/12 06:10:46;;;;;;;0.80;0.80;;;9.60;99.90;;;;;;5114543;28;20031;-73
2023/04/12 06:13:21;;;;;;;0.80;0.80;;;9.80;99.90;;;;;;5084284;28;20051;-70
2023/04/12 06:15:52;;;;;;;;;;;9.60;99.90;;;;;;5111401;28;20274;-70
2023/04/12 06:18:23;;;;;;;0.50;0.50;;;9.40;99.90;;;;;;5150040;28;19926;-71
2023/04/12 06:20:54;;;;;;;0.60;0.60;;;9.50;99.90;;;;;;5101918;29;20027;-70
2023/04/12 06:23:25;;;;;;;0.77;0.77;;;9.40;99.90;;;;;;5081130;28;20467;-72
2023/04/12 06:25:57;;;;;;;0.80;0.80;;;9.50;99.90;;;;;;5158904;28;20312;-70
2023/04/12 06:28:28;;;;;;;0.50;0.50;;;9.90;99.90;;;;;;5106259;28;20030;-70
2023/04/12 06:30:59;;;;;;;0.57;0.57;;;10.40;99.90;;;;;;5090653;29;20354;-68
2023/04/12 06:33:35;;;;;;;1.15;1.15;;;10.20;99.90;;;;;;5072281;28;20047;-70
2023/04/12 06:36:07;;;;;;;0.70;0.70;;;10.30;99.90;;;;;;5091317;28;20336;-71
2023/04/12 06:38:43;;;;;;;0.70;0.70;;;10.80;99.90;;;;;;5081424;28;20043;-69
2023/04/12 06:41:14;;;;;;;1.45;1.08;;;11.20;99.90;;;;;;5068932;28;20378;-71
2023/04/12 06:43:45;;;;;;;0.70;0.70;;;11.70;99.90;;;;;;5119732;28;20047;-72
2023/04/12 06:46:25;;;;;;;0.60;0.60;;;12.20;99.90;;;;;;5141197;28;20374;-69
2023/04/12 06:48:56;;;;;;;0.73;0.73;;;12.30;99.90;;;;;;5133242;28;20341;-70
2023/04/12 06:51:27;;;;;;;0.75;0.75;;;12.50;99.90;;;;;;5137173;28;20342;-71
2023/04/12 06:53:58;;;;;;;0.80;0.80;;;12.60;99.90;;;;;;5128880;28;20050;-70
2023/04/12 06:56:30;;;;;;;0.68;0.68;;;12.50;99.90;;;;;;5130298;28;20037;-71
2023/04/12 06:59:01;;;;;;;0.90;0.90;;;11.90;99.90;;;;;;5091427;28;20030;-70
2023/04/12 07:01:32;;;;;;;0.70;0.70;;;11.90;99.90;;;;;;5106415;28;20236;-71
2023/04/12 07:04:04;;;;;;;0.70;0.70;;;12.10;99.90;;;;;;5131767;28;20219;-68
2023/04/12 07:06:35;;;;;;;0.80;0.80;;;11.80;99.90;;;;;;5068232;28;20051;-70
2023/04/12 07:09:06;;;;;;;0.90;0.90;;;11.80;99.90;;;;;;5081052;28;20052;-71
2023/04/12 07:11:37;;;;;;;0.70;0.70;;;12.10;99.90;;;;;;5118606;28;20048;-70
2023/04/12 07:14:16;;;;;;;1.08;1.08;;;12.50;99.90;;;;;;5146967;28;20363;-69
2023/04/12 07:16:48;;;;;;;0.88;0.88;;;12.70;99.90;;;;;;5109811;28;20045;-71
2023/04/12 07:19:19;;;;;;;1.25;1.15;;;12.90;99.90;;;;;;5145026;28;20200;-71
2023/04/12 07:21:51;;;;;;;0.60;0.60;;;13.10;99.90;;;;;;5112480;28;20060;-74
2023/04/12 07:24:24;;;;;;;0.60;0.60;;;13.20;99.90;;;;;;5136644;28;20046;-71
2023/04/12 07:26:59;;;;;;;0.82;0.82;;;13.00;99.90;;;;;;5044304;29;20040;-72
2023/04/12 07:29:30;;;;;;;0.73;0.73;;;12.40;99.90;;;;;;5078593;28;20047;-70
2023/04/12 07:32:04;;;;;;;1.05;1.05;;;12.10;99.90;;;;;;5098531;28;20045;-73
2023/04/12 07:34:41;;;;;;;0.75;0.75;;;12.20;99.90;;;;;;5139038;28;20027;-71
2023/04/12 07:37:16;;;;;;;0.85;0.85;;;12.60;99.90;;;;;;5087194;28;20064;-69
2023/04/12 07:39:47;;;;;;;0.98;0.98;;;13.00;99.90;;;;;;5122407;28;20534;-73
2023/04/12 07:42:19;;;;;;;0.80;0.80;;;13.10;99.90;;;;;;5082507;28;20055;-73
2023/04/12 07:44:50;;;;;;;0.70;0.70;;;13.40;99.90;;;;;;5158419;28;20485;-71
2023/04/12 07:47:21;;;;;;;1.10;1.10;;;13.40;99.90;;;;;;5062997;28;20050;-71
2023/04/12 07:49:52;;;;;;;1.00;1.00;;;13.70;99.90;;;;;;5110170;29;20015;-71
2023/04/12 07:52:25;;;;;;;0.88;0.88;;;13.80;99.90;;;;;;5181356;28;20049;-71
2023/04/12 07:55:03;;;;;;;0.90;0.90;;;14.00;99.90;;;;;;5084940;28;20336;-70
2023/04/12 07:57:34;;;;;;;0.95;0.95;;;14.30;99.90;;;;;;5154611;28;20098;-70
2023/04/12 08:00:15;;;;;;;0.65;0.65;;;14.50;99.90;;;;;;5078593;28;20045;-70
2023/04/12 08:02:48;;;;;;;1.30;1.20;;;14.60;99.90;;;;;;5097681;28;20037;-69
2023/04/12 08:05:20;;;;;;;1.10;1.00;;;14.70;99.90;;;;;;5116829;28;20340;-71
2023/04/12 08:07:56;;;;;;;0.90;0.90;;;14.20;99.90;;;;;;5081472;28;20051;-72
2023/04/12 08:10:29;;;;;;;1.27;1.27;;;14.50;99.90;;;;;;5081714;28;20035;-74
2023/04/12 08:13:00;;;;;;;1.00;1.00;;;14.60;99.90;;;;;;5087384;28;20059;-72
2023/04/12 08:15:32;;;;;;;1.15;1.05;;;15.40;99.90;;;;;;5135756;28;20272;-73
2023/04/12 08:18:09;;;;;;;1.08;1.08;;;15.50;99.90;;;;;;5082097;28;20037;-72
2023/04/12 08:20:42;;;;;;;0.77;0.77;;;15.80;99.90;;;;;;5076750;29;20196;-71
2023/04/12 08:23:14;;;;;;;1.02;1.02;;;15.90;99.90;;;;;;5089021;28;20129;-70
2023/04/12 08:25:46;;;;;;;1.52;1.42;;;16.00;99.90;;;;;;5117469;28;20295;-70
2023/04/12 08:28:17;;;;;;;0.88;0.88;;;16.20;99.90;;;;;;5079713;28;20043;-69
2023/04/12 08:30:48;;;;;;;1.30;1.20;;;16.40;99.90;;;;;;5147036;28;20035;-69
2023/04/12 08:33:24;;;;;;;0.90;0.90;;;16.70;99.90;;;;;;5109101;28;20031;-67
2023/04/12 08:35:56;;;;;;;0.80;0.80;;;16.80;99.90;;;;;;5129060;28;20056;-69
2023/04/12 08:38:30;;;;;;;1.40;1.40;;;17.20;99.90;;;;;;5148170;28;20163;-70
2023/04/12 08:41:05;;;;;;;1.52;1.33;;;17.30;99.90;;;;;;5116626;28;20360;-72
2023/04/12 08:43:41;;;;;;;0.90;0.90;;;17.60;99.90;;;;;;5116518;28;20027;-67
2023/04/12 08:46:16;;;;;;;1.15;1.13;;;17.80;1.00;;;;;;5160388;28;20043;-74
2023/04/12 08:48:53;;;;;;;;;;;18.20;42.20;;;;;;5163155;28;20366;-70
2023/04/12 08:51:25;;;;;;;0.70;0.70;;;18.30;25.00;;;;;;5066188;29;19922;-70
2023/04/12 08:53:59;;;;;;;0.82;0.82;;;18.50;38.60;;;;;;5116177;28;20083;-68
2023/04/12 08:56:31;;;;;;;1.25;0.90;;;18.70;77.40;;;;;;5098950;28;20061;-73
2023/04/12 08:59:03;;;;;;;1.20;1.20;;;18.70;81.60;;;;;;5110044;28;20028;-71
2023/04/12 09:01:35;;;;;;;0.80;0.80;;;18.50;80.10;;;;;;5093781;28;20053;-71
2023/04/12 09:04:07;;;;;;;0.75;0.75;;;18.20;67.30;;;;;;5076740;28;20046;-69
2023/04/12 09:06:38;;;;;;;0.80;0.80;;;18.90;61.90;;;;;;5135116;28;20075;-69
2023/04/12 09:09:12;;;;;;;1.25;1.25;;;19.80;52.90;;;;;;5092052;29;20035;-71
2023/04/12 09:11:46;;;;;;;1.00;1.00;;;20.10;71.10;;;;;;5079001;28;20166;-71
2023/04/12 09:14:24;;;;;;;0.77;0.77;;;19.60;39.80;;;;;;5149309;28;20062;-69
2023/04/12 09:16:55;;;;;;;0.60;0.60;;;20.00;23.40;;;;;;5090300;28;20286;-72
2023/04/12 09:19:34;;;;;;;1.00;0.90;;;20.30;47.70;;;;;;5098801;29;20035;-71
2023/04/12 09:22:08;;;;;;;0.75;0.75;;;20.00;44.50;;;;;;5095400;28;20052;-69
2023/04/12 09:24:49;;;;;;;2.42;0.85;;;19.90;44.10;;;;;;5091311;29;20057;-72
2023/04/12 09:27:24;;;;;;;0.55;0.55;;;20.70;41.70;;;;;;5053172;29;20039;-70
2023/04/12 09:30:10;;;;;;;5.05;2.25;;;21.10;32.50;;;;;;5079217;28;20049;-70
2023/04/12 09:32:48;;;;;;;0.90;0.90;;;21.40;42.00;;;;;;5081966;28;20426;-69
2023/04/12 09:35:33;;;;;;;0.88;0.88;;;21.50;34.60;;;;;;5101631;28;20655;-67
2023/04/12 09:38:09;;;;;;;0.57;0.57;;;20.70;22.90;;;;;;5133438;28;20039;-71
2023/04/12 09:40:40;;;;;;;2.03;1.08;;;19.60;30.10;;;;;;5094273;28;20357;-69
2023/04/12 09:43:12;;;;;;;1.05;1.00;;;19.90;38.20;;;;;;5085851;28;20041;-71
2023/04/12 09:45:43;;;;;;;0.68;0.68;;;20.10;40.40;;;;;;5103087;29;20043;-70
2023/04/12 09:48:19;;;;;;;0.70;0.70;;;20.20;40.90;;;;;;5089798;28;20540;-70
2023/04/12 09:50:58;;;;;;;1.75;1.35;;;20.00;33.90;;;;;;5092892;29;20429;-71
2023/04/12 09:53:34;;;;;;;0.90;0.90;;;20.50;29.70;;;;;;5054663;29;20043;-69
2023/04/12 09:56:08;;;;;;;1.00;0.90;;;20.40;25.70;;;;;;5082124;28;20082;-70
2023/04/12 09:58:42;;;;;;;1.33;0.95;;;20.20;26.40;;;;;;5078944;28;20051;-71
2023/04/12 10:01:16;;;;;;;1.17;1.17;;;19.90;34.90;;;;;;5108043;28;20534;-70
2023/04/12 10:03:48;;;;;;;1.20;1.10;;;19.00;38.20;;;;;;5068232;28;20613;-73
2023/04/12 10:06:21;;;;;;;0.90;0.90;;;18.70;35.20;;;;;;5161093;28;20060;-70
2023/04/12 10:08:55;;;;;;;1.00;1.00;;;19.10;43.70;;;;;;5140628;28;20438;-70
2023/04/12 10:11:27;;;;;;;;;;;19.50;40.00;;;;;;5078168;28;20046;-70
2023/04/12 10:14:04;;;;;;;1.65;1.55;;;19.30;46.60;;;;;;5100640;28;19933;-71
2023/04/12 10:16:44;;;;;;;0.93;0.90;;;19.70;46.60;;;;;;5100267;28;20340;-72
2023/04/12 10:19:19;;;;;;;1.02;1.00;;;20.00;46.10;;;;;;5095939;29;20512;-68
2023/04/12 10:21:55;;;;;;;0.85;0.85;;;20.10;35.70;;;;;;5087918;28;20040;-71
2023/04/12 10:24:30;;;;;;;1.23;1.13;;;19.80;27.90;;;;;;5078093;28;20040;-68
2023/04/12 10:27:03;;;;;;;0.82;0.82;;;18.20;19.10;;;;;;5074568;28;20430;-70
2023/04/12 10:29:36;;;;;;;0.68;0.68;;;18.40;13.90;;;;;;5104359;28;20050;-70
2023/04/12 10:32:24;;;;;;;1.23;1.15;;;19.10;4.90;;;;;;5090470;29;20039;-71
2023/04/12 10:35:01;;;;;;;0.70;0.70;;;19.80;4.90;;;;;;5108255;28;20323;-68
2023/04/12 10:38:01;;;;;;;1.70;1.60;;;20.30;22.60;;;;;;5109383;29;20049;-73
2023/04/12 10:40:32;;;;;;;0.70;0.70;;;20.80;12.30;;;;;;5082703;28;20036;-66
2023/04/12 10:43:23;;;;;;;0.82;0.82;;;20.20;3.10;;;;;;5071423;29;20050;-69
2023/04/12 10:45:54;;;;;;;1.23;1.13;;;20.00;2.10;;;;;;5090972;29;20043;-71
2023/04/12 10:48:34;;;;;;;0.85;0.85;;;19.50;9.00;;;;;;5093256;29;20035;-69
2023/04/12 10:51:24;;;;;;;0.70;0.70;;;19.50;1.00;;;;;;5086686;28;20043;-73
2023/04/12 10:54:10;;;;;;;2.08;0.90;;;20.20;1.00;;;;;;5109709;28;20347;-70
2023/04/12 10:56:42;;;;;;;0.80;0.75;;;20.60;1.00;;;;;;5106555;29;20069;-72
2023/04/12 10:59:15;;;;;;;0.70;0.70;;;20.90;1.00;;;;;;5092191;28;20035;-71
2023/04/12 11:02:08;;;;;;;0.55;0.55;;;21.30;1.00;;;;;;5105218;28;20514;-73
2023/04/12 11:05:08;;;;;;;1.25;1.25;;;21.70;1.00;;;;;;5074109;28;20055;-69
2023/04/12 11:07:41;;;;;;;1.33;1.23;;;22.10;1.00;;;;;;5122727;28;20400;-69
2023/04/12 11:10:24;;;;;;;0.93;0.93;;;21.60;1.00;;;;;;5166715;28;20053;-68
2023/04/12 11:13:06;;;;;;;0.95;0.73;;;21.10;1.00;;;;;;5091754;29;20706;-72
2023/04/12 11:15:44;;;;;;;0.60;0.60;;;20.50;1.00;;;;;;5085324;28;20604;-67
2023/04/12 11:18:16;;;;;;;0.73;0.73;;;20.90;1.00;;;;;;5073975;28;20050;-69
2023/04/12 11:20:49;;;;;;;0.65;0.65;;;21.20;1.00;;;;;;5082554;28;20050;-71
2023/04/12 11:23:25;;;;;;;0.70;0.70;;;21.50;1.00;;;;;;5077842;28;20031;-72
2023/04/12 11:26:04;;;;;;;0.70;0.70;;;22.10;1.00;;;;;;5164748;28;20563;-71
2023/04/12 11:28:37;;;;;;;0.68;0.50;;;22.80;1.00;;;;;;5093358;29;20057;-68
2023/04/12 11:31:12;;;;;;;0.70;0.70;;;21.70;1.00;;;;;;5082358;29;20050;-70
2023/04/12 11:33:45;;;;;;;0.73;0.73;;;21.60;1.00;;;;;;5088895;29;20047;-68
2023/04/12 11:36:17;;;;;;;0.63;0.63;;;22.30;1.00;;;;;;5113920;28;20061;-68
2023/04/12 11:38:51;;;;;;;1.02;1.02;;;21.80;1.00;;;;;;5120770;28;20035;-69
2023/04/12 11:41:22;;;;;;;;;;;22.30;1.00;;;;;;5092558;28;20055;-71
2023/04/12 11:43:58;;;;;;;1.15;1.05;;;23.20;1.00;;;;;;5102661;29;19921;-73
2023/04/12 11:46:35;;;;;;;1.25;1.00;;;23.90;1.00;;;;;;5105656;28;20473;-68
2023/04/12 11:49:09;;;;;;;0.63;0.63;;;23.30;1.00;;;;;;5078449;29;20049;-71
2023/04/12 11:51:40;;;;;;;0.77;0.77;;;24.30;1.00;;;;;;5054946;29;20043;-72
2023/04/12 11:54:12;;;;;;;1.27;0.88;;;24.30;1.00;;;;;;5112271;29;20035;-70
2023/04/12 11:56:50;;;;;;;0.60;0.60;;;24.20;1.00;;;;;;5168293;28;20062;-70
2023/04/12 11:59:21;;;;;;;0.55;0.55;;;23.40;1.00;;;;;;5110148;28;20032;-67
2023/04/12 12:01:53;;;;;;;0.55;0.55;;;23.20;1.00;;;;;;5111148;28;20074;-71
2023/04/12 12:04:28;;;;;;;0.70;0.70;;;24.00;1.00;;;;;;5149846;28;20039;-68
2023/04/12 12:07:00;;;;;;;0.60;0.60;;;24.10;1.00;;;;;;5108026;29;20015;-69
2023/04/12 12:09:31;;;;;;;0.98;0.52;;;23.70;1.00;;;;;;5139460;28;20043;-68
2023/04/12 12:12:02;;;;;;;0.85;0.85;;;22.40;1.00;;;;;;5086740;29;20265;-65
2023/04/12 12:14:39;;;;;;;0.85;0.80;;;21.00;1.00;;;;;;5110867;29;20035;-69
2023/04/12 12:17:15;;;;;;;1.40;1.00;;;20.30;1.00;;;;;;5089886;29;20043;-71
2023/04/12 12:19:55;;;;;;;0.90;0.63;;;21.00;1.00;;;;;;5160239;28;20035;-69
2023/04/12 12:22:29;;;;;;;0.63;0.63;;;21.20;1.00;;;;;;5107057;28;20033;-66
2023/04/12 12:25:00;;;;;;;0.80;0.80;;;22.70;1.00;;;;;;5080213;28;20047;-67
2023/04/12 12:27:37;;;;;;;1.05;0.63;;;22.10;1.00;;;;;;5139515;28;20030;-71
2023/04/12 12:30:10;;;;;;;0.70;0.70;;;21.70;1.00;;;;;;5088334;29;20039;-73
2023/04/12 12:32:43;;;;;;;0.70;0.70;;;22.10;1.00;;;;;;5090073;29;20035;-71
2023/04/12 12:35:18;;;;;;;0.70;0.70;;;22.00;1.00;;;;;;5111544;29;20041;-71
2023/04/12 12:37:51;;;;;;;0.90;0.88;;;20.30;1.00;;;;;;5111591;29;20035;-68
2023/04/12 12:40:31;;;;;;;0.88;0.88;;;20.50;1.00;;;;;;5101155;28;20057;-70
2023/04/12 12:43:02;;;;;;;1.23;1.13;;;19.70;1.00;;;;;;5117197;28;20033;-68
2023/04/12 12:45:37;;;;;;;1.15;1.15;;;19.80;1.00;;;;;;5117825;28;20241;-70
2023/04/12 12:48:08;;;;;;;0.70;0.70;;;19.60;1.00;;;;;;5092716;28;20041;-68
2023/04/12 12:50:40;;;;;;;0.77;0.77;;;19.40;1.00;;;;;;5111039;28;20030;-69
2023/04/12 12:53:16;;;;;;;1.05;1.00;;;19.10;1.00;;;;;;5103398;28;20037;-68
2023/04/12 12:55:47;;;;;;;0.85;0.85;;;19.10;1.00;;;;;;5084554;28;20059;-69
2023/04/12 12:58:24;;;;;;;0.75;0.75;;;18.90;1.00;;;;;;5087597;28;20605;-71
2023/04/12 13:01:01;;;;;;;0.93;0.93;;;19.10;1.00;;;;;;5111195;28;20055;-71
2023/04/12 13:03:33;;;;;;;0.80;0.80;;;18.90;1.00;;;;;;5106264;28;20043;-67
2023/04/12 13:06:05;;;;;;;1.05;0.98;;;18.40;1.00;;;;;;5088933;28;20077;-70
2023/04/12 13:08:36;;;;;;;0.95;0.95;;;18.30;1.00;;;;;;5101177;28;20035;-70
2023/04/12 13:11:10;;;;;;;0.90;0.90;;;18.30;1.00;;;;;;5136289;28;20041;-70
2023/04/12 13:13:43;;;;;;;1.48;1.38;;;18.50;1.00;;;;;;5105535;28;20050;-69
2023/04/12 13:16:19;;;;;;;1.55;1.45;;;19.00;1.00;;;;;;5135172;28;20059;-66
2023/04/12 13:18:53;;;;;;;0.70;0.70;;;19.50;1.00;;;;;;5135540;28;20023;-71
2023/04/12 13:21:24;;;;;;;0.95;0.95;;;19.20;1.00;;;;;;5110145;28;20380;-68
2023/04/12 13:23:55;;;;;;;0.73;0.73;;;18.30;1.00;;;;;;5113535;28;20041;-68
2023/04/12 13:26:26;;;;;;;2.00;1.13;;;18.10;1.00;;;;;;5157819;28;20045;-66
2023/04/12 13:29:00;;;;;;;1.05;1.05;;;18.30;1.00;;;;;;5141225;28;20025;-69
2023/04/12 13:31:33;;;;;;;0.97;0.97;;;19.00;1.00;;;;;;5131499;28;20045;-71
2023/04/12 13:34:07;;;;;;;0.63;0.63;;;19.10;1.00;;;;;;5122915;28;20031;-70
2023/04/12 13:36:38;;;;;;;0.70;0.70;;;19.10;1.00;;;;;;5150059;28;20064;-70